createdAt,value
2018-08-06T00:02:01.435Z,26.40
2018-08-06T00:06:56.838Z,26.30
2018-08-06T00:09:24.264Z,26.30
2018-08-06T00:11:51.969Z,26.30
2018-08-06T00:14:19.333Z,26.30
2018-08-06T00:16:46.782Z,26.30
2018-08-06T00:19:14.161Z,26.20
2018-08-06T00:21:41.606Z,26.20
2018-08-06T00:24:09.022Z,26.20
2018-08-06T00:26:36.441Z,26.20
2018-08-06T00:29:03.974Z,26.20
2018-08-06T00:31:31.493Z,26.10
2018-08-06T00:33:59.040Z,26.10
2018-08-06T00:36:26.510Z,26.10
2018-08-06T00:38:53.989Z,26.10
2018-08-06T00:41:21.482Z,26.10
2018-08-06T00:43:48.958Z,26.00
2018-08-06T00:46:16.418Z,26.00
2018-08-06T00:48:43.919Z,26.00
2018-08-06T00:51:11.432Z,26.00
2018-08-06T00:56:06.243Z,25.90
2018-08-06T00:58:33.678Z,25.90
2018-08-06T01:01:01.247Z,25.90
2018-08-06T01:03:28.778Z,25.90
2018-08-06T01:05:56.269Z,25.90
2018-08-06T01:08:23.645Z,25.80
2018-08-06T01:10:51.239Z,25.90
2018-08-06T01:13:18.687Z,25.80
2018-08-06T01:15:46.178Z,25.80
2018-08-06T01:18:13.667Z,25.80
2018-08-06T01:20:41.157Z,25.80
2018-08-06T01:23:08.637Z,25.70
2018-08-06T01:25:36.159Z,25.70
2018-08-06T01:28:03.834Z,25.70
2018-08-06T01:30:32.004Z,25.70
2018-08-06T01:32:59.805Z,25.70
2018-08-06T01:35:27.217Z,25.70
2018-08-06T01:37:54.638Z,25.60
2018-08-06T01:40:22.122Z,25.60
2018-08-06T01:42:49.605Z,25.60
2018-08-06T01:47:44.908Z,25.60
2018-08-06T01:50:13.375Z,25.50
2018-08-06T01:52:41.328Z,25.50
2018-08-06T01:55:08.909Z,25.50
2018-08-06T01:57:36.422Z,25.50
2018-08-06T02:00:06.898Z,25.40
2018-08-06T02:02:34.423Z,25.40
2018-08-06T02:05:01.945Z,25.40
2018-08-06T02:07:29.582Z,25.30
2018-08-06T02:09:57.074Z,25.30
2018-08-06T02:12:24.528Z,25.30
2018-08-06T02:14:52.013Z,25.30
2018-08-06T02:17:19.469Z,25.30
2018-08-06T02:19:47.163Z,25.30
2018-08-06T02:22:14.666Z,25.30
2018-08-06T02:24:42.229Z,25.20
2018-08-06T02:27:09.721Z,25.20
2018-08-06T02:29:37.323Z,25.20
2018-08-06T02:32:05.455Z,25.10
2018-08-06T02:34:33.072Z,25.10
2018-08-06T02:37:00.498Z,25.10
2018-08-06T02:39:27.853Z,25.10
2018-08-06T02:41:55.337Z,25.10
2018-08-06T02:44:22.812Z,25.00
2018-08-06T02:46:50.238Z,25.00
2018-08-06T02:49:17.686Z,25.00
2018-08-06T02:51:45.136Z,25.00
2018-08-06T02:54:12.631Z,25.00
2018-08-06T02:56:40.114Z,25.00
2018-08-06T02:59:07.627Z,25.00
2018-08-06T03:01:35.155Z,24.90
2018-08-06T03:04:02.633Z,24.90
2018-08-06T03:06:30.242Z,24.90
2018-08-06T03:08:57.735Z,24.90
2018-08-06T03:11:25.215Z,24.90
2018-08-06T03:13:52.837Z,24.90
2018-08-06T03:16:20.343Z,24.90
2018-08-06T03:18:47.741Z,24.90
2018-08-06T03:21:15.170Z,24.90
2018-08-06T03:23:42.592Z,24.80
2018-08-06T03:26:10.103Z,24.80
2018-08-06T03:28:37.628Z,24.80
2018-08-06T03:31:05.360Z,24.80
2018-08-06T03:33:32.905Z,24.80
2018-08-06T03:36:00.381Z,24.80
2018-08-06T03:38:27.996Z,24.80
2018-08-06T03:40:55.422Z,24.80
2018-08-06T03:43:22.865Z,24.70
2018-08-06T03:45:50.293Z,24.70
2018-08-06T03:48:17.853Z,24.70
2018-08-06T03:50:45.438Z,24.70
2018-08-06T03:53:12.883Z,24.70
2018-08-06T03:55:40.338Z,24.60
2018-08-06T03:58:07.809Z,24.60
2018-08-06T04:00:35.271Z,24.50
2018-08-06T04:03:02.776Z,24.50
2018-08-06T04:05:30.198Z,24.50
2018-08-06T04:07:57.682Z,24.50
2018-08-06T04:10:25.085Z,24.50
2018-08-06T04:12:52.663Z,24.50
2018-08-06T04:15:20.142Z,24.50
2018-08-06T04:17:47.621Z,24.50
2018-08-06T04:20:15.156Z,24.40
2018-08-06T04:22:43.091Z,24.50
2018-08-06T04:25:10.978Z,24.40
2018-08-06T04:27:38.454Z,24.40
2018-08-06T04:30:08.790Z,24.40
2018-08-06T04:32:36.244Z,24.40
2018-08-06T04:35:03.931Z,24.40
2018-08-06T04:37:31.570Z,24.40
2018-08-06T04:39:59.109Z,24.30
2018-08-06T04:42:26.517Z,24.30
2018-08-06T04:44:54.210Z,24.30
2018-08-06T04:47:21.705Z,24.30
2018-08-06T04:49:49.158Z,24.30
2018-08-06T04:52:16.614Z,24.30
2018-08-06T04:54:44.062Z,24.30
2018-08-06T04:57:11.692Z,24.30
2018-08-06T04:59:39.426Z,24.30
2018-08-06T05:02:06.877Z,24.30
2018-08-06T05:04:34.508Z,24.30
2018-08-06T05:07:02.012Z,24.30
2018-08-06T05:09:39.570Z,24.30
2018-08-06T05:12:07.177Z,24.30
2018-08-06T05:14:35.381Z,24.30
2018-08-06T05:17:03.190Z,24.30
2018-08-06T05:19:30.714Z,24.30
2018-08-06T05:21:58.170Z,24.30
2018-08-06T05:24:25.654Z,24.30
2018-08-06T05:26:53.245Z,24.30
2018-08-06T05:29:20.778Z,24.30
2018-08-06T05:31:48.225Z,24.30
2018-08-06T05:34:15.834Z,24.30
2018-08-06T05:39:10.802Z,24.30
2018-08-06T05:41:38.232Z,24.30
2018-08-06T05:44:05.903Z,24.30
2018-08-06T05:46:33.552Z,24.30
2018-08-06T05:49:01.090Z,24.30
2018-08-06T05:51:28.595Z,24.30
2018-08-06T05:53:56.103Z,24.30
2018-08-06T05:56:23.486Z,24.30
2018-08-06T05:58:50.941Z,24.30
2018-08-06T06:01:18.645Z,24.40
2018-08-06T06:03:46.129Z,24.40
2018-08-06T06:06:13.694Z,24.40
2018-08-06T06:08:41.163Z,24.40
2018-08-06T06:11:09.070Z,24.50
2018-08-06T06:13:36.527Z,24.50
2018-08-06T06:16:04.198Z,24.50
2018-08-06T06:18:31.806Z,24.50
2018-08-06T06:20:59.263Z,24.60
2018-08-06T06:23:26.773Z,24.60
2018-08-06T06:25:54.247Z,24.70
2018-08-06T06:28:21.674Z,24.70
2018-08-06T06:30:49.293Z,24.70
2018-08-06T06:33:16.777Z,24.80
2018-08-06T06:35:44.282Z,24.80
2018-08-06T06:38:11.738Z,24.80
2018-08-06T06:40:39.314Z,24.80
2018-08-06T06:43:06.885Z,24.90
2018-08-06T06:45:34.486Z,24.90
2018-08-06T06:48:01.845Z,24.90
2018-08-06T06:50:29.434Z,25.00
2018-08-06T06:52:56.862Z,25.00
2018-08-06T06:55:24.320Z,25.00
2018-08-06T06:57:51.759Z,25.00
2018-08-06T07:00:19.193Z,25.10
2018-08-06T07:02:46.661Z,25.10
2018-08-06T07:05:14.128Z,25.10
2018-08-06T07:07:41.603Z,25.20
2018-08-06T07:10:10.584Z,25.10
2018-08-06T07:12:38.217Z,25.20
2018-08-06T07:15:08.265Z,25.30
2018-08-06T07:17:35.666Z,25.30
2018-08-06T07:20:04.177Z,25.30
2018-08-06T07:22:31.782Z,25.30
2018-08-06T07:24:59.221Z,25.40
2018-08-06T07:27:26.869Z,25.40
2018-08-06T07:29:54.483Z,25.40
2018-08-06T07:32:21.963Z,25.50
2018-08-06T07:34:49.397Z,25.40
2018-08-06T07:37:16.975Z,25.50
2018-08-06T07:39:44.418Z,25.50
2018-08-06T07:42:11.955Z,25.60
2018-08-06T07:44:39.425Z,25.60
2018-08-06T07:47:06.914Z,25.60
2018-08-06T07:49:34.645Z,25.60
2018-08-06T07:52:02.089Z,25.70
2018-08-06T07:54:29.639Z,25.70
2018-08-06T07:56:57.217Z,25.70
2018-08-06T07:59:24.931Z,25.70
2018-08-06T08:01:52.509Z,25.70
2018-08-06T08:04:20.750Z,25.80
2018-08-06T08:06:48.247Z,25.80
2018-08-06T08:09:15.723Z,25.80
2018-08-06T08:11:43.319Z,25.80
2018-08-06T08:14:10.928Z,25.80
2018-08-06T08:16:38.445Z,25.90
2018-08-06T08:19:06.010Z,25.90
2018-08-06T08:21:33.750Z,25.90
2018-08-06T08:24:01.167Z,26.00
2018-08-06T08:26:28.677Z,26.00
2018-08-06T08:28:56.634Z,26.00
2018-08-06T08:31:24.223Z,26.00
2018-08-06T08:33:51.790Z,26.00
2018-08-06T08:36:19.261Z,26.10
2018-08-06T08:38:46.743Z,26.10
2018-08-06T08:41:14.153Z,26.10
2018-08-06T08:43:41.545Z,26.10
2018-08-06T08:46:09.034Z,26.20
2018-08-06T08:48:36.501Z,26.20
2018-08-06T08:51:03.973Z,26.20
2018-08-06T08:53:31.414Z,26.20
2018-08-06T08:55:58.850Z,26.20
2018-08-06T08:58:26.363Z,26.30
2018-08-06T09:00:53.873Z,26.30
2018-08-06T09:03:21.397Z,26.30
2018-08-06T09:05:48.946Z,26.30
2018-08-06T09:08:16.410Z,26.40
2018-08-06T09:10:43.934Z,26.40
2018-08-06T09:13:11.342Z,26.40
2018-08-06T09:15:38.877Z,26.40
2018-08-06T09:18:06.403Z,26.40
2018-08-06T09:20:34.005Z,26.40
2018-08-06T09:23:01.470Z,26.40
2018-08-06T09:25:28.947Z,26.50
2018-08-06T09:27:56.435Z,26.50
2018-08-06T09:30:24.367Z,26.50
2018-08-06T09:32:53.213Z,26.50
2018-08-06T09:35:21.103Z,26.50
2018-08-06T09:37:48.620Z,26.60
2018-08-06T09:40:17.401Z,26.50
2018-08-06T09:42:45.532Z,26.60
2018-08-06T09:45:14.327Z,26.60
2018-08-06T09:47:43.366Z,26.60
2018-08-06T09:50:11.593Z,26.70
2018-08-06T09:52:39.829Z,26.70
2018-08-06T09:55:09.629Z,26.70
2018-08-06T09:57:37.203Z,26.70
2018-08-06T10:00:13.467Z,26.70
2018-08-06T10:02:41.156Z,26.80
2018-08-06T10:05:08.775Z,26.80
2018-08-06T10:07:36.217Z,26.80
2018-08-06T10:10:05.746Z,26.80
2018-08-06T10:12:33.206Z,26.80
2018-08-06T10:15:00.662Z,26.90
2018-08-06T10:17:28.145Z,26.90
2018-08-06T10:19:55.542Z,26.90
2018-08-06T10:22:22.973Z,26.90
2018-08-06T10:27:18.001Z,26.90
2018-08-06T10:29:45.494Z,27.00
2018-08-06T10:32:12.922Z,27.00
2018-08-06T10:34:40.411Z,27.00
2018-08-06T10:37:07.853Z,27.00
2018-08-06T10:39:35.322Z,27.00
2018-08-06T10:42:02.906Z,27.10
2018-08-06T10:44:30.422Z,27.10
2018-08-06T10:46:57.935Z,27.10
2018-08-06T10:49:25.358Z,27.10
2018-08-06T10:51:52.785Z,27.10
2018-08-06T10:54:20.263Z,27.10
2018-08-06T10:56:47.769Z,27.20
2018-08-06T10:59:15.285Z,27.20
2018-08-06T11:01:43.688Z,27.20
2018-08-06T11:04:11.135Z,27.20
2018-08-06T11:06:38.570Z,27.30
2018-08-06T11:09:06.550Z,27.30
2018-08-06T11:11:34.016Z,27.30
2018-08-06T11:16:29.117Z,27.40
2018-08-06T11:18:56.627Z,27.40
2018-08-06T11:21:24.076Z,27.40
2018-08-06T11:23:51.711Z,27.40
2018-08-06T11:26:19.234Z,27.50
2018-08-06T11:28:47.018Z,27.50
2018-08-06T11:31:14.616Z,27.50
2018-08-06T11:33:42.238Z,27.60
2018-08-06T11:36:09.853Z,27.60
2018-08-06T11:38:37.250Z,27.60
2018-08-06T11:41:05.027Z,27.70
2018-08-06T11:43:32.427Z,27.70
2018-08-06T11:46:00.142Z,27.70
2018-08-06T11:48:27.572Z,27.70
2018-08-06T11:50:55.157Z,27.70
2018-08-06T11:53:22.618Z,27.80
2018-08-06T11:55:50.072Z,27.80
2018-08-06T11:58:17.839Z,27.90
2018-08-06T12:00:45.315Z,27.90
2018-08-06T12:03:12.994Z,28.00
2018-08-06T12:05:40.418Z,28.00
2018-08-06T12:08:08.097Z,28.00
2018-08-06T12:10:35.638Z,28.10
2018-08-06T12:13:03.275Z,28.10
2018-08-06T12:15:30.892Z,28.10
2018-08-06T12:17:58.345Z,28.20
2018-08-06T12:20:25.729Z,28.20
2018-08-06T12:22:53.165Z,28.20
2018-08-06T12:25:21.815Z,28.30
2018-08-06T12:27:49.509Z,28.30
2018-08-06T12:30:18.731Z,28.40
2018-08-06T12:32:46.885Z,28.40
2018-08-06T12:35:14.922Z,28.40
2018-08-06T12:37:42.965Z,28.50
2018-08-06T12:40:12.807Z,28.50
2018-08-06T12:42:40.558Z,28.60
2018-08-06T12:45:09.183Z,28.60
2018-08-06T12:47:37.352Z,28.70
2018-08-06T12:50:06.221Z,28.70
2018-08-06T12:52:33.659Z,28.80
2018-08-06T12:55:01.376Z,28.80
2018-08-06T12:57:28.834Z,28.90
2018-08-06T12:59:56.525Z,28.90
2018-08-06T13:02:23.934Z,29.00
2018-08-06T13:04:51.329Z,29.00
2018-08-06T13:07:18.855Z,29.10
2018-08-06T13:09:46.430Z,29.10
2018-08-06T13:12:13.887Z,29.20
2018-08-06T13:14:41.804Z,29.20
2018-08-06T13:17:09.463Z,29.30
2018-08-06T13:19:37.429Z,29.40
2018-08-06T13:22:05.120Z,29.40
2018-08-06T13:24:32.611Z,29.50
2018-08-06T13:27:00.124Z,29.50
2018-08-06T13:29:27.843Z,29.60
2018-08-06T13:31:55.314Z,29.60
2018-08-06T13:34:22.767Z,29.70
2018-08-06T13:36:50.427Z,29.70
2018-08-06T13:39:17.845Z,29.80
2018-08-06T13:41:45.324Z,29.80
2018-08-06T13:44:12.784Z,29.90
2018-08-06T13:46:40.176Z,29.90
2018-08-06T13:49:07.880Z,30.00
2018-08-06T13:51:35.603Z,30.00
2018-08-06T13:54:03.157Z,30.10
2018-08-06T13:56:31.111Z,30.10
2018-08-06T13:58:58.605Z,30.00
2018-08-06T14:01:26.119Z,30.10
2018-08-06T14:03:53.915Z,30.10
2018-08-06T14:06:21.445Z,30.10
2018-08-06T14:08:49.146Z,30.20
2018-08-06T14:11:16.813Z,30.20
2018-08-06T14:13:44.266Z,30.20
2018-08-06T14:16:11.706Z,30.20
2018-08-06T14:18:39.255Z,30.30
2018-08-06T14:21:06.842Z,30.40
2018-08-06T14:23:34.315Z,30.40
2018-08-06T14:26:01.904Z,30.50
2018-08-06T14:28:29.365Z,30.50
2018-08-06T14:30:56.950Z,30.60
2018-08-06T14:33:24.477Z,30.70
2018-08-06T14:35:51.918Z,30.70
2018-08-06T14:38:19.859Z,30.70
2018-08-06T14:40:47.471Z,30.80
2018-08-06T14:43:14.955Z,30.90
2018-08-06T14:45:42.475Z,30.90
2018-08-06T14:48:09.916Z,30.90
2018-08-06T14:50:37.358Z,31.00
2018-08-06T14:53:04.802Z,31.00
2018-08-06T14:55:32.366Z,31.20
2018-08-06T14:57:59.818Z,31.20
2018-08-06T15:00:27.249Z,31.30
2018-08-06T15:02:54.677Z,31.40
2018-08-06T15:05:22.237Z,31.50
2018-08-06T15:07:49.853Z,31.60
2018-08-06T15:10:17.423Z,31.70
2018-08-06T15:12:44.986Z,31.80
2018-08-06T15:15:13.770Z,31.90
2018-08-06T15:17:41.781Z,32.00
2018-08-06T15:20:12.182Z,32.20
2018-08-06T15:22:39.742Z,32.30
2018-08-06T15:25:13.527Z,32.50
2018-08-06T15:27:41.517Z,32.60
2018-08-06T15:30:09.494Z,32.70
2018-08-06T15:32:37.377Z,33.00
2018-08-06T15:35:05.155Z,33.20
2018-08-06T15:37:32.805Z,33.40
2018-08-06T15:40:00.363Z,33.60
2018-08-06T15:42:28.049Z,33.90
2018-08-06T15:44:55.543Z,34.20
2018-08-06T15:47:23.019Z,34.60
2018-08-06T15:49:51.066Z,34.80
2018-08-06T15:52:18.635Z,35.10
2018-08-06T15:54:46.098Z,35.30
2018-08-06T15:57:13.537Z,35.50
2018-08-06T15:59:41.177Z,35.60
2018-08-06T16:02:08.756Z,35.80
2018-08-06T16:07:04.018Z,36.10
2018-08-06T16:09:31.465Z,36.30
2018-08-06T16:11:59.109Z,36.30
2018-08-06T16:14:26.557Z,36.50
2018-08-06T16:16:54.253Z,36.50
2018-08-06T16:19:21.994Z,36.50
2018-08-06T16:21:49.678Z,36.50
2018-08-06T16:24:17.393Z,36.40
2018-08-06T16:26:45.105Z,36.40
2018-08-06T16:29:12.612Z,36.40
2018-08-06T16:31:40.444Z,36.30
2018-08-06T16:34:07.989Z,36.30
2018-08-06T16:36:35.514Z,36.20
2018-08-06T16:39:05.388Z,36.10
2018-08-06T16:41:33.246Z,35.80
2018-08-06T16:44:01.075Z,35.70
2018-08-06T16:46:28.652Z,35.50
2018-08-06T16:48:56.139Z,35.30
2018-08-06T16:51:23.706Z,35.20
2018-08-06T16:53:51.274Z,35.10
2018-08-06T16:56:18.704Z,35.00
2018-08-06T16:58:46.150Z,34.90
2018-08-06T17:01:13.847Z,34.80
2018-08-06T17:03:41.303Z,34.80
2018-08-06T17:06:09.055Z,34.70
2018-08-06T17:08:36.896Z,34.60
2018-08-06T17:11:04.496Z,34.60
2018-08-06T17:13:32.239Z,34.50
2018-08-06T17:15:59.775Z,34.40
2018-08-06T17:18:27.326Z,34.40
2018-08-06T17:20:54.780Z,34.30
2018-08-06T17:23:22.560Z,34.20
2018-08-06T17:25:50.017Z,34.20
2018-08-06T17:28:17.454Z,34.10
2018-08-06T17:30:44.942Z,34.10
2018-08-06T17:33:12.413Z,34.00
2018-08-06T17:35:40.341Z,33.90
2018-08-06T17:38:07.852Z,33.80
2018-08-06T17:40:35.369Z,33.80
2018-08-06T17:43:02.974Z,33.70
2018-08-06T17:45:30.485Z,33.60
2018-08-06T17:47:57.913Z,33.50
2018-08-06T17:50:25.383Z,33.40
2018-08-06T17:52:53.362Z,33.20
2018-08-06T17:55:21.819Z,33.20
2018-08-06T17:57:49.283Z,33.10
2018-08-06T18:00:17.280Z,33.00
2018-08-06T18:02:44.779Z,32.90
2018-08-06T18:05:13.438Z,32.90
2018-08-06T18:07:41.735Z,32.80
2018-08-06T18:10:10.921Z,32.70
2018-08-06T18:12:38.398Z,32.60
2018-08-06T18:15:06.337Z,32.50
2018-08-06T18:17:34.255Z,32.50
2018-08-06T18:20:02.047Z,32.40
2018-08-06T18:22:30.058Z,32.30
2018-08-06T18:24:57.491Z,32.30
2018-08-06T18:27:25.223Z,32.20
2018-08-06T18:29:52.741Z,32.20
2018-08-06T18:32:20.618Z,32.10
2018-08-06T18:34:48.431Z,32.10
2018-08-06T18:37:15.975Z,32.00
2018-08-06T18:39:43.733Z,31.90
2018-08-06T18:42:11.221Z,31.90
2018-08-06T18:44:39.133Z,31.80
2018-08-06T18:47:06.621Z,31.80
2018-08-06T18:49:34.186Z,31.70
2018-08-06T18:52:02.156Z,31.70
2018-08-06T18:54:29.565Z,31.70
2018-08-06T18:56:57.340Z,31.70
2018-08-06T18:59:24.828Z,31.60
2018-08-06T19:01:52.317Z,31.60
2018-08-06T19:04:20.663Z,31.50
2018-08-06T19:06:48.199Z,31.50
2018-08-06T19:09:17.161Z,31.40
2018-08-06T19:11:45.566Z,31.40
2018-08-06T19:14:20.126Z,31.40
2018-08-06T19:16:49.251Z,31.30
2018-08-06T19:19:21.907Z,31.30
2018-08-06T19:21:49.968Z,31.30
2018-08-06T19:24:23.219Z,31.30
2018-08-06T19:26:50.930Z,31.20
2018-08-06T19:29:18.469Z,31.20
2018-08-06T19:31:46.200Z,31.20
2018-08-06T19:34:13.695Z,31.10
2018-08-06T19:39:14.633Z,31.10
2018-08-06T19:41:42.259Z,31.00
2018-08-06T19:44:09.779Z,31.00
2018-08-06T19:46:37.845Z,31.00
2018-08-06T19:49:11.262Z,31.00
2018-08-06T19:51:39.038Z,30.90
2018-08-06T19:54:06.589Z,30.90
2018-08-06T19:56:34.457Z,30.90
2018-08-06T19:59:02.086Z,30.80
2018-08-06T20:01:29.857Z,30.80
2018-08-06T20:03:57.716Z,30.80
2018-08-06T20:06:25.389Z,30.80
2018-08-06T20:08:53.187Z,30.70
2018-08-06T20:11:20.759Z,30.70
2018-08-06T20:13:48.551Z,30.70
2018-08-06T20:16:15.951Z,30.60
2018-08-06T20:18:43.898Z,30.60
2018-08-06T20:21:11.428Z,30.60
2018-08-06T20:23:39.015Z,30.60
2018-08-06T20:26:06.901Z,30.60
2018-08-06T20:28:34.447Z,30.50
2018-08-06T20:31:02.421Z,30.50
2018-08-06T20:33:29.886Z,30.50
2018-08-06T20:35:57.747Z,30.40
2018-08-06T20:38:25.173Z,30.40
2018-08-06T20:40:52.698Z,30.40
2018-08-06T20:43:20.090Z,30.30
2018-08-06T20:45:47.533Z,30.30
2018-08-06T20:50:42.564Z,30.30
2018-08-06T20:53:10.115Z,30.30
2018-08-06T20:55:37.771Z,30.20
2018-08-06T20:58:06.094Z,30.20
2018-08-06T21:00:33.534Z,30.20
2018-08-06T21:03:01.314Z,30.20
2018-08-06T21:05:28.688Z,30.10
2018-08-06T21:07:56.202Z,30.10
2018-08-06T21:10:23.759Z,30.10
2018-08-06T21:12:51.511Z,30.10
2018-08-06T21:15:19.101Z,30.00
2018-08-06T21:17:46.622Z,30.00
2018-08-06T21:20:15.306Z,30.00
2018-08-06T21:22:44.134Z,30.00
2018-08-06T21:25:12.051Z,30.00
2018-08-06T21:27:40.908Z,30.00
2018-08-06T21:30:10.917Z,29.90
2018-08-06T21:32:39.093Z,29.90
2018-08-06T21:35:06.817Z,29.90
2018-08-06T21:37:34.249Z,29.90
2018-08-06T21:40:01.810Z,29.90
2018-08-06T21:47:24.446Z,29.80
2018-08-06T21:49:51.989Z,29.80
2018-08-06T21:52:19.459Z,29.80
2018-08-06T21:54:46.909Z,29.80
2018-08-06T21:57:14.378Z,29.70
2018-08-06T21:59:41.940Z,29.70
2018-08-06T22:02:09.406Z,29.60
2018-08-06T22:04:36.888Z,29.60
2018-08-06T22:07:04.437Z,29.60
2018-08-06T22:11:59.371Z,29.60
2018-08-06T22:14:26.945Z,29.50
2018-08-06T22:16:54.378Z,29.50
2018-08-06T22:19:21.892Z,29.50
2018-08-06T22:21:49.458Z,29.50
2018-08-06T22:24:17.002Z,29.50
2018-08-06T22:26:44.446Z,29.40
2018-08-06T22:29:11.929Z,29.40
2018-08-06T22:31:39.358Z,29.40
2018-08-06T22:34:06.830Z,29.40
2018-08-06T22:36:34.287Z,29.30
2018-08-06T22:39:01.898Z,29.30
2018-08-06T22:41:29.410Z,29.30
2018-08-06T22:43:56.873Z,29.00
2018-08-06T22:46:24.301Z,29.30
2018-08-06T22:48:51.890Z,29.20
2018-08-06T22:51:19.374Z,29.20
2018-08-06T22:53:46.930Z,29.20
2018-08-06T22:56:14.585Z,29.20
2018-08-06T22:58:42.250Z,29.20
2018-08-06T23:01:10.547Z,29.10
2018-08-06T23:03:38.018Z,29.10
2018-08-06T23:06:06.246Z,29.10
2018-08-06T23:08:33.806Z,29.10
2018-08-06T23:11:01.530Z,29.10
2018-08-06T23:13:28.985Z,29.00
2018-08-06T23:15:56.489Z,29.00
2018-08-06T23:18:23.950Z,29.00
2018-08-06T23:20:51.389Z,29.00
2018-08-06T23:23:18.891Z,29.00
2018-08-06T23:25:46.378Z,28.90
2018-08-06T23:28:13.820Z,28.90
2018-08-06T23:30:41.268Z,28.90
2018-08-06T23:33:08.871Z,28.80
2018-08-06T23:35:36.332Z,28.80
2018-08-06T23:38:04.050Z,28.80
2018-08-06T23:40:31.497Z,28.80
2018-08-06T23:42:58.895Z,28.70
2018-08-06T23:45:26.301Z,28.70
2018-08-06T23:47:53.811Z,28.70
2018-08-06T23:50:21.390Z,28.70
2018-08-06T23:52:48.937Z,28.70
2018-08-06T23:55:17.567Z,28.70
2018-08-06T23:57:45.107Z,28.60
